createdAt,value
2019-05-11T00:00:02.681Z,0.00
2019-05-11T00:01:02.686Z,0.00
2019-05-11T00:02:02.662Z,0.00
2019-05-11T00:03:02.646Z,0.00
2019-05-11T00:04:02.658Z,0.00
2019-05-11T00:05:02.636Z,0.00
2019-05-11T00:06:02.616Z,0.00
2019-05-11T00:07:02.606Z,0.00
2019-05-11T00:08:02.643Z,0.00
2019-05-11T00:09:02.595Z,0.00
2019-05-11T00:10:02.575Z,0.00
2019-05-11T00:11:02.574Z,0.00
2019-05-11T00:12:02.563Z,0.00
2019-05-11T00:13:02.553Z,0.00
2019-05-11T00:14:02.577Z,0.00
2019-05-11T00:15:02.520Z,0.00
2019-05-11T00:16:02.513Z,0.00
2019-05-11T00:17:02.540Z,0.00
2019-05-11T00:18:02.517Z,0.00
2019-05-11T00:19:02.474Z,0.00
2019-05-11T00:20:02.899Z,0.00
2019-05-11T00:21:02.450Z,0.00
2019-05-11T00:22:02.434Z,0.00
2019-05-11T00:23:02.425Z,0.00
2019-05-11T00:24:02.423Z,0.00
2019-05-11T00:25:02.409Z,0.00
2019-05-11T00:26:02.391Z,0.00
2019-05-11T00:27:02.396Z,0.00
2019-05-11T00:28:02.400Z,0.00
2019-05-11T00:29:02.364Z,0.00
2019-05-11T00:30:02.362Z,0.00
2019-05-11T00:31:02.343Z,0.00
2019-05-11T00:32:02.338Z,0.00
2019-05-11T00:33:02.315Z,0.00
2019-05-11T00:34:02.300Z,0.00
2019-05-11T00:35:02.308Z,0.00
2019-05-11T00:36:02.282Z,0.00
2019-05-11T00:37:02.288Z,0.00
2019-05-11T00:38:02.274Z,0.00
2019-05-11T00:39:02.253Z,0.00
2019-05-11T00:40:13.881Z,0.00
2019-05-11T00:41:03.244Z,0.00
2019-05-11T00:42:02.213Z,0.00
2019-05-11T00:43:02.203Z,0.00
2019-05-11T00:44:02.197Z,0.00
2019-05-11T00:45:02.179Z,0.00
2019-05-11T00:46:02.192Z,0.00
2019-05-11T00:47:02.174Z,0.00
2019-05-11T00:48:02.153Z,0.00
2019-05-11T00:49:02.141Z,0.00
2019-05-11T00:50:02.124Z,0.00
2019-05-11T00:51:02.112Z,0.00
2019-05-11T00:52:02.152Z,0.00
2019-05-11T00:53:02.100Z,0.00
2019-05-11T00:54:02.079Z,0.00
2019-05-11T00:55:02.070Z,0.00
2019-05-11T00:56:02.067Z,0.00
2019-05-11T00:57:02.069Z,0.00
2019-05-11T00:58:02.042Z,0.00
2019-05-11T00:59:02.027Z,0.00
2019-05-11T01:00:02.022Z,0.00
2019-05-11T01:01:02.019Z,0.00
2019-05-11T01:02:01.999Z,0.00
2019-05-11T01:03:01.989Z,0.00
2019-05-11T01:04:02.027Z,0.00
2019-05-11T01:05:01.960Z,0.00
2019-05-11T01:06:01.964Z,0.00
2019-05-11T01:07:01.938Z,0.00
2019-05-11T01:08:01.948Z,0.00
2019-05-11T01:09:01.925Z,0.00
2019-05-11T01:10:01.917Z,0.00
2019-05-11T01:11:01.892Z,0.00
2019-05-11T01:12:01.888Z,0.00
2019-05-11T01:13:01.881Z,0.00
2019-05-11T01:14:01.867Z,0.00
2019-05-11T01:15:01.858Z,0.00
2019-05-11T01:16:01.841Z,0.00
2019-05-11T01:17:01.831Z,0.00
2019-05-11T01:18:01.814Z,0.00
2019-05-11T01:19:01.803Z,0.00
2019-05-11T01:20:01.799Z,0.00
2019-05-11T01:21:01.779Z,0.00
2019-05-11T01:22:01.774Z,0.00
2019-05-11T01:23:01.783Z,0.00
2019-05-11T01:24:01.752Z,0.00
2019-05-11T01:25:01.828Z,0.00
2019-05-11T01:26:01.764Z,0.00
2019-05-11T01:27:01.717Z,0.00
2019-05-11T01:28:01.707Z,0.00
2019-05-11T01:29:01.695Z,0.00
2019-05-11T01:30:01.693Z,0.00
2019-05-11T01:31:01.676Z,0.00
2019-05-11T01:32:01.678Z,0.00
2019-05-11T01:33:01.646Z,0.00
2019-05-11T01:34:01.644Z,0.00
2019-05-11T01:35:01.670Z,0.00
2019-05-11T01:36:01.656Z,0.00
2019-05-11T01:37:01.601Z,0.00
2019-05-11T01:38:01.597Z,0.00
2019-05-11T01:39:01.581Z,0.00
2019-05-11T01:40:01.570Z,0.00
2019-05-11T01:41:01.564Z,0.00
2019-05-11T01:42:01.560Z,0.00
2019-05-11T01:43:01.575Z,0.00
2019-05-11T01:44:08.346Z,0.00
2019-05-11T01:45:01.514Z,0.00
2019-05-11T01:46:01.531Z,0.00
2019-05-11T01:47:01.603Z,0.00
2019-05-11T01:48:01.483Z,0.00
2019-05-11T01:49:01.478Z,0.00
2019-05-11T01:50:01.468Z,0.00
2019-05-11T01:51:01.446Z,0.00
2019-05-11T01:52:01.434Z,0.00
2019-05-11T01:53:01.449Z,0.00
2019-05-11T01:54:01.417Z,0.00
2019-05-11T01:55:01.401Z,0.00
2019-05-11T01:56:01.396Z,0.00
2019-05-11T01:57:01.414Z,0.00
2019-05-11T01:58:01.375Z,0.00
2019-05-11T01:59:01.366Z,0.00
2019-05-11T02:00:01.347Z,0.00
2019-05-11T02:01:01.341Z,0.00
2019-05-11T02:02:01.327Z,0.00
2019-05-11T02:03:01.332Z,0.00
2019-05-11T02:04:01.305Z,0.00
2019-05-11T02:05:01.302Z,0.00
2019-05-11T02:06:01.279Z,0.00
2019-05-11T02:07:01.272Z,0.00
2019-05-11T02:08:01.256Z,0.00
2019-05-11T02:09:01.305Z,0.00
2019-05-11T02:10:01.231Z,0.00
2019-05-11T02:11:14.965Z,0.00
2019-05-11T02:12:02.209Z,0.00
2019-05-11T02:13:01.213Z,0.00
2019-05-11T02:14:01.188Z,0.00
2019-05-11T02:15:01.212Z,0.00
2019-05-11T02:16:01.181Z,0.00
2019-05-11T02:17:01.175Z,0.00
2019-05-11T02:18:01.190Z,0.00
2019-05-11T02:19:01.155Z,0.00
2019-05-11T02:20:01.154Z,0.00
2019-05-11T02:21:01.126Z,0.00
2019-05-11T02:22:01.108Z,0.00
2019-05-11T02:23:01.097Z,0.00
2019-05-11T02:24:01.091Z,0.00
2019-05-11T02:25:01.068Z,0.00
2019-05-11T02:26:01.063Z,0.00
2019-05-11T02:27:01.044Z,0.00
2019-05-11T02:28:01.034Z,0.00
2019-05-11T02:29:01.021Z,0.00
2019-05-11T02:30:01.040Z,0.00
2019-05-11T02:31:00.994Z,0.00
2019-05-11T02:32:00.982Z,0.00
2019-05-11T02:33:00.970Z,0.00
2019-05-11T02:34:00.971Z,0.00
2019-05-11T02:35:00.985Z,0.00
2019-05-11T02:36:00.963Z,0.00
2019-05-11T02:37:00.925Z,0.00
2019-05-11T02:38:00.917Z,0.00
2019-05-11T02:39:00.912Z,0.00
2019-05-11T02:40:00.896Z,4.00
2019-05-11T02:41:00.918Z,4.00
2019-05-11T02:42:00.882Z,4.00
2019-05-11T02:43:00.859Z,0.00
2019-05-11T02:44:00.856Z,4.00
2019-05-11T02:45:00.839Z,4.00
2019-05-11T02:46:00.828Z,4.00
2019-05-11T02:47:00.827Z,4.00
2019-05-11T02:48:00.811Z,4.00
2019-05-11T02:49:00.792Z,8.00
2019-05-11T02:50:00.782Z,8.00
2019-05-11T02:51:00.781Z,8.00
2019-05-11T02:52:00.771Z,8.00
2019-05-11T02:53:00.744Z,12.00
2019-05-11T02:54:00.739Z,16.00
2019-05-11T02:55:00.721Z,16.00
2019-05-11T02:56:00.729Z,20.00
2019-05-11T02:57:00.725Z,20.00
2019-05-11T02:58:00.689Z,24.00
2019-05-11T02:59:00.695Z,28.00
2019-05-11T03:00:00.684Z,36.00
2019-05-11T03:01:00.675Z,36.00
2019-05-11T03:02:00.680Z,44.00
2019-05-11T03:03:00.782Z,48.00
2019-05-11T03:04:00.628Z,52.00
2019-05-11T03:05:00.617Z,60.00
2019-05-11T03:06:00.617Z,68.00
2019-05-11T03:07:00.606Z,76.00
2019-05-11T03:08:00.602Z,80.00
2019-05-11T03:09:00.575Z,88.00
2019-05-11T03:10:00.563Z,100.00
2019-05-11T03:11:00.564Z,112.00
2019-05-11T03:12:00.554Z,120.00
2019-05-11T03:13:00.558Z,136.00
2019-05-11T03:14:00.558Z,148.00
2019-05-11T03:15:00.507Z,168.00
2019-05-11T03:16:00.510Z,184.00
2019-05-11T03:17:00.489Z,204.00
2019-05-11T03:18:00.482Z,220.00
2019-05-11T03:19:00.483Z,244.00
2019-05-11T03:20:00.451Z,260.00
2019-05-11T03:21:00.446Z,280.00
2019-05-11T03:22:00.431Z,300.00
2019-05-11T03:23:00.423Z,324.00
2019-05-11T03:24:00.443Z,352.00
2019-05-11T03:25:00.424Z,372.00
2019-05-11T03:26:00.389Z,396.00
2019-05-11T03:27:00.376Z,420.00
2019-05-11T03:28:00.363Z,448.00
2019-05-11T03:29:00.366Z,488.00
2019-05-11T03:30:01.716Z,536.00
2019-05-11T03:31:00.347Z,576.00
2019-05-11T03:32:00.353Z,604.00
2019-05-11T03:33:00.333Z,620.00
2019-05-11T03:34:00.302Z,640.00
2019-05-11T03:35:00.355Z,620.00
2019-05-11T03:36:00.282Z,608.00
2019-05-11T03:37:00.271Z,612.00
2019-05-11T03:38:00.253Z,632.00
2019-05-11T03:39:00.247Z,672.00
2019-05-11T03:40:00.234Z,728.00
2019-05-11T03:41:00.229Z,772.00
2019-05-11T03:42:13.813Z,816.00
2019-05-11T03:43:01.202Z,880.00
2019-05-11T03:44:00.181Z,972.00
2019-05-11T03:45:00.178Z,1088.00
2019-05-11T03:46:00.199Z,1176.00
2019-05-11T03:47:00.179Z,1128.00
2019-05-11T03:48:00.139Z,992.00
2019-05-11T03:49:00.138Z,896.00
2019-05-11T03:50:00.121Z,840.00
2019-05-11T03:51:00.104Z,808.00
2019-05-11T03:52:00.105Z,792.00
2019-05-11T03:53:00.082Z,804.00
2019-05-11T03:54:00.071Z,856.00
2019-05-11T03:55:00.065Z,928.00
2019-05-11T03:56:00.053Z,1012.00
2019-05-11T03:57:00.059Z,1060.00
2019-05-11T03:58:00.029Z,1096.00
2019-05-11T03:59:00.019Z,1152.00
2019-05-11T04:00:00.017Z,1196.00
2019-05-11T04:01:00.003Z,1232.00
2019-05-11T04:01:59.988Z,1252.00
2019-05-11T04:02:59.979Z,1240.00
2019-05-11T04:03:59.976Z,1244.00
2019-05-11T04:04:59.953Z,1276.00
2019-05-11T04:05:59.945Z,1312.00
2019-05-11T04:06:59.934Z,1368.00
2019-05-11T04:07:59.940Z,1420.00
2019-05-11T04:08:59.924Z,1464.00
2019-05-11T04:09:59.898Z,1488.00
2019-05-11T04:10:59.885Z,1472.00
2019-05-11T04:11:59.877Z,1448.00
2019-05-11T04:12:59.875Z,1432.00
2019-05-11T04:13:59.871Z,1424.00
2019-05-11T04:14:59.858Z,1420.00
2019-05-11T04:15:59.835Z,1432.00
2019-05-11T04:16:59.815Z,1468.00
2019-05-11T04:17:59.809Z,1548.00
2019-05-11T04:18:59.826Z,1640.00
2019-05-11T04:19:59.781Z,1756.00
2019-05-11T04:20:59.776Z,1888.00
2019-05-11T04:21:59.766Z,2040.00
2019-05-11T04:22:59.751Z,2220.00
2019-05-11T04:23:59.736Z,2432.00
2019-05-11T04:24:59.742Z,2676.00
2019-05-11T04:25:59.721Z,2952.00
2019-05-11T04:26:59.702Z,3228.00
2019-05-11T04:27:59.709Z,3560.00
2019-05-11T04:28:59.690Z,3928.00
2019-05-11T04:29:59.677Z,4344.00
2019-05-11T04:30:59.674Z,4776.00
2019-05-11T04:31:59.658Z,5108.00
2019-05-11T04:32:59.644Z,5340.00
2019-05-11T04:33:59.626Z,5560.00
2019-05-11T04:34:59.621Z,5756.00
2019-05-11T04:35:59.650Z,5896.00
2019-05-11T04:36:59.593Z,5792.00
2019-05-11T04:37:59.597Z,5508.00
2019-05-11T04:38:59.576Z,5284.00
2019-05-11T04:39:59.562Z,5084.00
2019-05-11T04:40:59.555Z,4892.00
2019-05-11T04:41:59.556Z,4696.00
2019-05-11T04:42:59.555Z,4520.00
2019-05-11T04:43:59.529Z,4396.00
2019-05-11T04:44:59.505Z,4264.00
2019-05-11T04:45:59.491Z,4136.00
2019-05-11T04:46:59.511Z,4012.00
2019-05-11T04:47:59.480Z,3884.00
2019-05-11T04:48:59.467Z,3780.00
2019-05-11T04:49:59.451Z,3708.00
2019-05-11T04:50:59.444Z,3680.00
2019-05-11T04:51:59.434Z,3692.00
2019-05-11T04:52:59.434Z,3724.00
2019-05-11T04:53:59.408Z,3764.00
2019-05-11T04:54:59.409Z,3804.00
2019-05-11T04:55:59.390Z,3816.00
2019-05-11T04:56:59.394Z,3872.00
2019-05-11T04:57:59.367Z,3932.00
2019-05-11T04:58:59.371Z,4020.00
2019-05-11T04:59:59.349Z,4136.00
2019-05-11T05:00:59.336Z,4340.00
2019-05-11T05:01:59.340Z,4576.00
2019-05-11T05:02:59.321Z,4800.00
2019-05-11T05:04:13.521Z,4952.00
2019-05-11T05:05:00.291Z,5016.00
2019-05-11T05:06:20.853Z,5204.00
2019-05-11T05:07:05.132Z,5456.00
2019-05-11T05:08:09.025Z,5560.00
2019-05-11T05:09:03.807Z,5492.00
2019-05-11T05:09:59.229Z,5428.00
2019-05-11T05:11:00.784Z,5372.00
2019-05-11T05:11:59.212Z,5496.00
2019-05-11T05:13:10.311Z,5728.00
2019-05-11T05:14:01.872Z,5964.00
2019-05-11T05:15:00.175Z,6204.00
2019-05-11T05:15:59.175Z,6496.00
2019-05-11T05:16:59.151Z,6868.00
2019-05-11T05:17:59.140Z,7336.00
2019-05-11T05:18:59.137Z,7840.00
2019-05-11T05:19:59.122Z,8136.00
2019-05-11T05:20:59.110Z,8348.00
2019-05-11T05:21:59.097Z,8416.00
2019-05-11T05:22:59.086Z,8544.00
2019-05-11T05:23:59.110Z,8724.00
2019-05-11T05:24:59.068Z,8868.00
2019-05-11T05:25:59.055Z,8768.00
2019-05-11T05:26:59.045Z,8668.00
2019-05-11T05:27:59.085Z,8420.00
2019-05-11T05:28:59.051Z,7976.00
2019-05-11T05:29:59.012Z,7384.00
2019-05-11T05:30:58.991Z,7164.00
2019-05-11T05:31:58.992Z,7480.00
2019-05-11T05:32:58.974Z,7900.00
2019-05-11T05:34:01.380Z,8380.00
2019-05-11T05:34:58.984Z,8716.00
2019-05-11T05:35:58.939Z,9180.00
2019-05-11T05:36:58.970Z,9856.00
2019-05-11T05:37:58.929Z,10252.00
2019-05-11T05:38:58.958Z,10184.00
2019-05-11T05:39:58.901Z,9824.00
2019-05-11T05:40:58.894Z,8888.00
2019-05-11T05:41:58.870Z,8568.00
2019-05-11T05:42:58.857Z,8564.00
2019-05-11T05:43:58.868Z,8244.00
2019-05-11T05:44:58.843Z,8612.00
2019-05-11T05:45:58.827Z,8596.00
2019-05-11T05:46:58.817Z,8852.00
2019-05-11T05:47:58.815Z,9716.00
2019-05-11T05:48:58.800Z,10172.00
2019-05-11T05:49:58.797Z,10336.00
2019-05-11T05:50:58.771Z,10468.00
2019-05-11T05:51:58.847Z,10180.00
2019-05-11T05:52:58.749Z,9740.00
2019-05-11T05:53:58.746Z,9492.00
2019-05-11T05:54:58.739Z,9184.00
2019-05-11T05:55:58.714Z,8976.00
2019-05-11T05:56:58.743Z,8700.00
2019-05-11T05:57:58.743Z,8432.00
2019-05-11T05:58:58.686Z,8376.00
2019-05-11T05:59:58.681Z,8452.00
2019-05-11T06:00:58.661Z,8496.00
2019-05-11T06:01:58.658Z,8232.00
2019-05-11T06:02:58.647Z,7916.00
2019-05-11T06:03:58.630Z,7692.00
2019-05-11T06:04:58.631Z,7540.00
2019-05-11T06:05:58.616Z,7304.00
2019-05-11T06:06:58.619Z,7080.00
2019-05-11T06:07:58.589Z,6864.00
2019-05-11T06:08:58.613Z,6564.00
2019-05-11T06:09:58.563Z,6424.00
2019-05-11T06:10:58.608Z,6140.00
2019-05-11T06:11:58.543Z,5872.00
2019-05-11T06:12:58.523Z,5780.00
2019-05-11T06:13:58.512Z,5984.00
2019-05-11T06:14:58.503Z,6232.00
2019-05-11T06:15:58.541Z,6496.00
2019-05-11T06:16:58.514Z,6568.00
2019-05-11T06:18:00.608Z,6664.00
2019-05-11T06:18:58.514Z,6616.00
2019-05-11T06:19:58.479Z,6616.00
2019-05-11T06:20:58.433Z,6604.00
2019-05-11T06:21:58.429Z,6520.00
2019-05-11T06:22:58.434Z,6444.00
2019-05-11T06:24:05.458Z,6444.00
2019-05-11T06:24:59.389Z,6516.00
2019-05-11T06:25:58.384Z,6536.00
2019-05-11T06:26:58.378Z,6412.00
2019-05-11T06:27:58.385Z,6312.00
2019-05-11T06:28:58.357Z,6560.00
2019-05-11T06:29:58.335Z,6568.00
2019-05-11T06:30:58.330Z,6496.00
2019-05-11T06:31:58.322Z,6512.00
2019-05-11T06:32:58.342Z,6608.00
2019-05-11T06:33:58.292Z,6528.00
2019-05-11T06:34:58.284Z,6456.00
2019-05-11T06:35:58.291Z,6380.00
2019-05-11T06:36:58.260Z,6372.00
2019-05-11T06:37:58.253Z,6360.00
2019-05-11T06:38:58.238Z,6380.00
2019-05-11T06:39:58.273Z,6404.00
2019-05-11T06:40:58.229Z,6428.00
2019-05-11T06:41:58.223Z,6440.00
2019-05-11T06:42:58.195Z,6432.00
2019-05-11T06:44:01.631Z,6444.00
2019-05-11T06:44:58.166Z,6476.00
2019-05-11T06:45:58.156Z,6544.00
2019-05-11T06:46:58.180Z,6608.00
2019-05-11T06:47:58.137Z,6668.00
2019-05-11T06:48:58.131Z,6748.00
2019-05-11T06:49:58.110Z,6864.00
2019-05-11T06:50:58.110Z,7020.00
2019-05-11T06:51:58.344Z,7176.00
2019-05-11T06:52:58.087Z,7328.00
2019-05-11T06:53:58.109Z,7524.00
2019-05-11T06:54:58.057Z,7732.00
2019-05-11T06:55:58.045Z,7904.00
2019-05-11T06:56:58.034Z,8056.00
2019-05-11T06:57:58.026Z,8220.00
2019-05-11T06:58:58.029Z,8404.00
2019-05-11T06:59:58.025Z,8608.00
2019-05-11T07:00:58.034Z,8748.00
2019-05-11T07:01:57.988Z,8836.00
2019-05-11T07:02:57.964Z,8892.00
2019-05-11T07:03:57.961Z,8860.00
2019-05-11T07:04:57.967Z,8824.00
2019-05-11T07:05:57.941Z,8768.00
2019-05-11T07:06:57.929Z,8644.00
2019-05-11T07:07:57.919Z,8464.00
2019-05-11T07:08:57.914Z,8408.00
2019-05-11T07:09:57.924Z,8432.00
2019-05-11T07:10:57.884Z,8472.00
2019-05-11T07:11:57.904Z,8448.00
2019-05-11T07:12:57.861Z,8440.00
2019-05-11T07:13:57.850Z,8428.00
2019-05-11T07:14:57.842Z,8404.00
2019-05-11T07:15:57.826Z,8376.00
2019-05-11T07:16:57.824Z,8348.00
2019-05-11T07:17:57.801Z,8316.00
2019-05-11T07:18:57.789Z,8288.00
2019-05-11T07:19:57.790Z,8256.00
2019-05-11T07:20:57.766Z,8332.00
2019-05-11T07:21:57.756Z,8500.00
2019-05-11T07:22:57.761Z,8664.00
2019-05-11T07:23:57.760Z,8792.00
2019-05-11T07:24:57.774Z,8952.00
2019-05-11T07:26:00.186Z,9136.00
2019-05-11T07:26:57.735Z,9236.00
2019-05-11T07:27:57.692Z,9092.00
2019-05-11T07:28:57.684Z,8820.00
2019-05-11T07:29:57.667Z,9176.00
2019-05-11T07:30:57.666Z,8632.00
2019-05-11T07:32:04.947Z,7844.00
2019-05-11T07:33:01.056Z,7684.00
2019-05-11T07:33:58.749Z,8312.00
2019-05-11T07:34:57.818Z,8652.00
2019-05-11T07:35:58.301Z,8316.00
2019-05-11T07:36:57.750Z,8420.00
2019-05-11T07:37:58.174Z,8220.00
2019-05-11T07:38:58.144Z,8644.00
2019-05-11T07:39:58.156Z,8648.00
2019-05-11T07:40:58.223Z,8616.00
2019-05-11T07:41:58.439Z,8748.00
2019-05-11T07:42:58.973Z,8816.00
2019-05-11T07:43:59.054Z,8944.00
2019-05-11T07:44:58.257Z,9072.00
2019-05-11T07:45:58.457Z,9156.00
2019-05-11T07:46:58.655Z,9240.00
2019-05-11T07:47:58.929Z,9288.00
2019-05-11T07:48:58.506Z,9340.00
2019-05-11T07:49:58.045Z,9452.00
2019-05-11T07:50:58.449Z,9580.00
2019-05-11T07:51:58.650Z,9712.00
2019-05-11T07:52:58.842Z,9892.00
2019-05-11T07:53:57.925Z,10124.00
2019-05-11T07:54:58.052Z,10324.00
2019-05-11T07:55:57.860Z,10516.00
2019-05-11T07:56:58.408Z,10696.00
2019-05-11T07:57:58.613Z,10944.00
2019-05-11T07:58:58.029Z,11228.00
2019-05-11T07:59:57.939Z,11464.00
2019-05-11T08:00:58.216Z,11784.00
2019-05-11T08:01:58.275Z,12040.00
2019-05-11T08:02:58.535Z,12252.00
2019-05-11T08:03:58.558Z,12556.00
2019-05-11T08:04:58.698Z,13016.00
2019-05-11T08:05:58.274Z,13236.00
2019-05-11T08:06:58.427Z,13388.00
2019-05-11T08:07:59.323Z,13516.00
2019-05-11T08:08:58.850Z,13600.00
2019-05-11T08:09:58.678Z,14028.00
2019-05-11T08:10:58.678Z,14624.00
2019-05-11T08:11:58.417Z,15276.00
2019-05-11T08:12:58.762Z,16360.00
2019-05-11T08:13:58.444Z,17460.00
2019-05-11T08:15:05.944Z,19488.00
2019-05-11T08:15:58.194Z,21504.00
2019-05-11T08:16:59.483Z,24192.00
2019-05-11T08:17:57.845Z,41792.00
2019-05-11T08:18:58.825Z,22080.00
2019-05-11T08:19:58.040Z,44128.00
2019-05-11T08:20:58.287Z,22048.00
2019-05-11T08:21:58.270Z,19840.00
2019-05-11T08:22:58.699Z,19232.00
2019-05-11T08:23:58.798Z,18784.00
2019-05-11T08:24:58.586Z,19008.00
2019-05-11T08:25:58.066Z,19136.00
2019-05-11T08:26:58.248Z,19520.00
2019-05-11T08:27:58.851Z,19808.00
2019-05-11T08:28:57.865Z,19712.00
2019-05-11T08:29:57.965Z,19040.00
2019-05-11T08:30:57.898Z,19104.00
2019-05-11T08:31:57.978Z,19744.00
2019-05-11T08:32:58.206Z,20352.00
2019-05-11T08:33:58.340Z,21600.00
2019-05-11T08:34:58.056Z,30784.00
2019-05-11T08:35:58.301Z,74528.00
2019-05-11T08:36:58.413Z,62816.00
2019-05-11T08:37:58.375Z,61856.00
2019-05-11T08:38:58.520Z,51264.00
2019-05-11T08:39:58.504Z,26496.00
2019-05-11T08:40:59.007Z,25792.00
2019-05-11T08:41:58.969Z,25536.00
2019-05-11T08:42:58.290Z,26720.00
2019-05-11T08:43:58.689Z,22432.00
2019-05-11T08:45:14.678Z,18144.00
2019-05-11T08:45:58.042Z,17728.00
2019-05-11T08:46:58.255Z,18880.00
2019-05-11T08:47:57.947Z,20352.00
2019-05-11T08:48:59.354Z,22144.00
2019-05-11T08:49:58.844Z,24000.00
2019-05-11T08:50:58.158Z,25472.00
2019-05-11T08:51:57.835Z,27008.00
2019-05-11T08:52:58.056Z,28224.00
2019-05-11T08:53:58.317Z,29600.00
2019-05-11T08:54:57.774Z,30592.00
2019-05-11T08:55:58.833Z,34528.00
2019-05-11T08:56:58.742Z,34816.00
2019-05-11T08:57:58.542Z,38272.00
2019-05-11T08:58:58.813Z,57760.00
2019-05-11T08:59:57.869Z,48256.00
2019-05-11T09:00:58.263Z,65312.00
2019-05-11T09:01:58.744Z,69920.00
2019-05-11T09:02:58.251Z,75040.00
2019-05-11T09:03:58.353Z,74752.00
2019-05-11T09:04:58.852Z,38496.00
2019-05-11T09:05:57.893Z,45728.00
2019-05-11T09:06:58.706Z,39488.00
2019-05-11T09:07:57.805Z,33280.00
2019-05-11T09:08:58.343Z,29760.00
2019-05-11T09:09:58.550Z,29120.00
2019-05-11T09:10:58.253Z,28864.00
2019-05-11T09:11:58.874Z,27936.00
2019-05-11T09:12:58.860Z,30272.00
2019-05-11T09:13:57.832Z,31008.00
2019-05-11T09:14:58.128Z,29472.00
2019-05-11T09:15:58.673Z,28864.00
2019-05-11T09:16:57.787Z,28512.00
2019-05-11T09:17:57.789Z,29024.00
2019-05-11T09:18:58.131Z,29248.00
2019-05-11T09:19:58.146Z,30240.00
2019-05-11T09:20:57.713Z,31456.00
2019-05-11T09:21:58.600Z,32864.00
2019-05-11T09:22:58.714Z,34272.00
2019-05-11T09:23:57.905Z,38144.00
2019-05-11T09:24:58.250Z,36448.00
2019-05-11T09:25:58.399Z,37376.00
2019-05-11T09:26:58.391Z,34848.00
2019-05-11T09:27:58.515Z,32064.00
2019-05-11T09:28:58.264Z,31808.00
2019-05-11T09:29:58.153Z,29280.00
2019-05-11T09:30:57.793Z,28960.00
2019-05-11T09:31:58.246Z,30368.00
2019-05-11T09:32:58.108Z,32384.00
2019-05-11T09:33:58.429Z,35968.00
2019-05-11T09:34:57.982Z,34400.00
2019-05-11T09:35:58.339Z,37184.00
2019-05-11T09:36:58.414Z,42496.00
2019-05-11T09:37:58.607Z,39360.00
2019-05-11T09:38:58.099Z,45568.00
2019-05-11T09:39:58.293Z,48224.00
2019-05-11T09:40:58.416Z,49472.00
2019-05-11T09:41:58.116Z,46560.00
2019-05-11T09:42:58.330Z,40384.00
2019-05-11T09:43:58.513Z,43136.00
2019-05-11T09:44:57.776Z,44320.00
2019-05-11T09:45:58.213Z,44480.00
2019-05-11T09:47:00.029Z,39456.00
2019-05-11T09:47:58.176Z,38464.00
2019-05-11T09:48:56.137Z,39968.00
2019-05-11T09:49:58.253Z,40416.00
2019-05-11T09:50:58.575Z,38176.00
2019-05-11T09:51:56.151Z,32896.00
2019-05-11T09:52:58.118Z,30144.00
2019-05-11T09:53:58.605Z,30208.00
2019-05-11T09:54:57.985Z,30368.00
2019-05-11T09:55:58.517Z,31904.00
2019-05-11T09:56:57.829Z,33696.00
2019-05-11T09:57:57.992Z,32160.00
2019-05-11T09:58:58.020Z,31840.00
2019-05-11T09:59:58.186Z,32768.00
2019-05-11T10:00:58.440Z,32576.00
2019-05-11T10:01:55.983Z,32736.00
2019-05-11T10:02:57.713Z,32672.00
2019-05-11T10:03:57.891Z,31904.00
2019-05-11T10:04:57.822Z,30464.00
2019-05-11T10:05:57.987Z,29216.00
2019-05-11T10:06:58.373Z,27936.00
2019-05-11T10:07:55.955Z,27232.00
2019-05-11T10:08:57.888Z,27200.00
2019-05-11T10:09:57.910Z,27264.00
2019-05-11T10:10:57.929Z,27456.00
2019-05-11T10:11:58.277Z,27776.00
2019-05-11T10:12:55.863Z,28512.00
2019-05-11T10:13:57.778Z,29248.00
2019-05-11T10:14:55.835Z,29440.00
2019-05-11T10:16:04.689Z,29792.00
2019-05-11T10:16:58.455Z,30080.00
2019-05-11T10:17:55.809Z,30272.00
2019-05-11T10:18:55.793Z,29792.00
2019-05-11T10:19:58.042Z,29568.00
2019-05-11T10:20:55.773Z,28992.00
2019-05-11T10:21:57.861Z,29024.00
2019-05-11T10:22:57.925Z,29152.00
2019-05-11T10:23:57.831Z,29600.00
2019-05-11T10:24:58.055Z,30048.00
2019-05-11T10:25:55.719Z,30528.00
2019-05-11T10:26:57.845Z,30688.00
2019-05-11T10:27:57.843Z,31680.00
2019-05-11T10:28:55.696Z,32832.00
2019-05-11T10:29:55.696Z,33312.00
2019-05-11T10:30:57.697Z,33792.00
2019-05-11T10:31:55.645Z,33696.00
2019-05-11T10:32:57.765Z,32736.00
2019-05-11T10:33:57.917Z,31712.00
2019-05-11T10:34:55.622Z,30048.00
2019-05-11T10:35:55.627Z,28096.00
2019-05-11T10:36:57.770Z,27392.00
2019-05-11T10:37:55.588Z,27424.00
2019-05-11T10:38:55.575Z,28320.00
2019-05-11T10:39:57.651Z,29952.00
2019-05-11T10:40:57.990Z,31264.00
2019-05-11T10:41:55.540Z,31424.00
2019-05-11T10:42:55.543Z,31872.00
2019-05-11T10:43:57.779Z,32736.00
2019-05-11T10:44:55.502Z,33056.00
2019-05-11T10:45:55.521Z,33120.00
2019-05-11T10:46:55.486Z,32832.00
2019-05-11T10:47:58.618Z,32544.00
2019-05-11T10:48:58.767Z,32224.00
2019-05-11T10:49:57.712Z,31232.00
2019-05-11T10:50:57.508Z,31808.00
2019-05-11T10:51:55.428Z,32736.00
2019-05-11T10:52:55.415Z,32800.00
2019-05-11T10:53:57.596Z,32224.00
2019-05-11T10:54:55.405Z,31680.00
2019-05-11T10:55:55.431Z,29952.00
2019-05-11T10:56:57.732Z,29440.00
2019-05-11T10:57:55.362Z,29152.00
2019-05-11T10:58:55.375Z,28128.00
2019-05-11T10:59:57.806Z,27712.00
2019-05-11T11:00:55.331Z,27264.00
2019-05-11T11:01:55.317Z,27168.00
2019-05-11T11:02:55.310Z,26976.00
2019-05-11T11:03:55.290Z,26720.00
2019-05-11T11:04:55.280Z,26240.00
2019-05-11T11:05:55.270Z,25632.00
2019-05-11T11:06:55.295Z,24992.00
2019-05-11T11:07:55.257Z,24192.00
2019-05-11T11:08:55.283Z,23040.00
2019-05-11T11:09:55.237Z,21728.00
2019-05-11T11:10:55.217Z,20352.00
2019-05-11T11:11:55.224Z,19392.00
2019-05-11T11:12:55.195Z,18752.00
2019-05-11T11:13:55.203Z,18368.00
2019-05-11T11:14:55.176Z,18304.00
2019-05-11T11:15:55.161Z,18368.00
2019-05-11T11:16:55.147Z,18368.00
2019-05-11T11:17:55.137Z,18304.00
2019-05-11T11:18:55.146Z,18272.00
2019-05-11T11:19:55.116Z,18304.00
2019-05-11T11:20:55.105Z,18368.00
2019-05-11T11:21:55.096Z,18368.00
2019-05-11T11:22:55.084Z,18304.00
2019-05-11T11:23:55.077Z,18144.00
2019-05-11T11:24:55.068Z,17984.00
2019-05-11T11:25:55.043Z,17824.00
2019-05-11T11:26:55.032Z,17504.00
2019-05-11T11:27:55.031Z,16928.00
2019-05-11T11:28:55.010Z,16052.00
2019-05-11T11:29:55.010Z,15108.00
2019-05-11T11:30:54.990Z,14228.00
2019-05-11T11:31:54.982Z,13492.00
2019-05-11T11:32:54.971Z,12988.00
2019-05-11T11:33:57.811Z,12756.00
2019-05-11T11:34:54.976Z,12768.00
2019-05-11T11:35:54.941Z,13040.00
2019-05-11T11:36:54.933Z,13492.00
2019-05-11T11:37:54.914Z,14020.00
2019-05-11T11:38:54.907Z,14624.00
2019-05-11T11:39:54.905Z,15372.00
2019-05-11T11:40:54.894Z,16208.00
2019-05-11T11:41:54.874Z,17120.00
2019-05-11T11:42:54.863Z,17760.00
2019-05-11T11:43:54.843Z,18176.00
2019-05-11T11:44:54.862Z,18304.00
2019-05-11T11:45:54.836Z,18176.00
2019-05-11T11:46:55.490Z,17984.00
2019-05-11T11:47:54.812Z,17952.00
2019-05-11T11:48:54.793Z,18016.00
2019-05-11T11:49:54.782Z,18144.00
2019-05-11T11:50:54.779Z,18144.00
2019-05-11T11:51:54.768Z,18176.00
2019-05-11T11:52:54.748Z,18240.00
2019-05-11T11:53:54.749Z,18208.00
2019-05-11T11:54:54.727Z,18304.00
2019-05-11T11:55:54.715Z,18272.00
2019-05-11T11:56:54.716Z,18240.00
2019-05-11T11:57:54.696Z,18336.00
2019-05-11T11:58:54.676Z,18592.00
2019-05-11T11:59:54.670Z,19040.00
2019-05-11T12:00:54.653Z,19520.00
2019-05-11T12:01:54.669Z,20000.00
2019-05-11T12:02:54.636Z,20448.00
2019-05-11T12:03:54.630Z,20736.00
2019-05-11T12:04:54.609Z,20736.00
2019-05-11T12:05:54.605Z,20672.00
2019-05-11T12:06:54.591Z,20448.00
2019-05-11T12:07:54.640Z,20320.00
2019-05-11T12:08:54.570Z,20608.00
2019-05-11T12:09:54.556Z,20992.00
2019-05-11T12:10:54.555Z,21056.00
2019-05-11T12:11:54.537Z,20960.00
2019-05-11T12:12:54.521Z,20864.00
2019-05-11T12:13:54.522Z,20736.00
2019-05-11T12:14:54.499Z,20640.00